Погода Конголана 2 недели

Карас, Намибия

19 июля-01 августа
  • 19июля
    Сегодня
    +12°
    +30°
    Ясно и безоблачно
    ВремяПогодаТемператураВлажностьДавлениеВетер, м/сВероятность осадков
    02:00Ясно и безоблачно+12°C34 %694 мм2.4 м/с0 %
    05:00Ясно и безоблачно+11°C39 %693 мм2.8 м/с0 %
    08:00Ясно и безоблачно+15°C43 %695 мм0.2 м/с0 %
    11:00Ясно и безоблачно+26°C18 %698 мм0.4 м/с0 %
    14:00Ясно и безоблачно+30°C11 %696 мм0.6 м/с0 %
    17:00Ясно и безоблачно+29°C10 %695 мм1.7 м/с0 %
    20:00Ясно и безоблачно+21°C18 %694 мм2.6 м/с0 %
    23:00Ясно и безоблачно+18°C27 %694 мм2.2 м/с0 %
  • 20июля
    Суббота
    +13°
    +31°
    Ясно и безоблачно
    ВремяПогодаТемператураВлажностьДавлениеВетер, м/сВероятность осадков
    02:00Ясно и безоблачно+16°C32 %694 мм2.8 м/с0 %
    05:00Ясно и безоблачно+14°C44 %693 мм2.3 м/с0 %
    08:00Ясно и безоблачно+15°C48 %695 мм0.1 м/с0 %
    11:00Ясно и безоблачно+27°C18 %698 мм0.4 м/с0 %
    14:00Ясно и безоблачно+30°C12 %696 мм0.6 м/с0 %
    17:00Ясно и безоблачно+29°C11 %695 мм1.6 м/с0 %
    20:00Ясно и безоблачно+22°C17 %694 мм1.9 м/с0 %
    23:00Ясно и безоблачно+20°C20 %694 мм0.3 м/с0 %
  • 21июля
    Воскресенье
    +14°
    +32°
    Ясно и безоблачно
    ВремяПогодаТемператураВлажностьДавлениеВетер, м/сВероятность осадков
    02:00Ясно и безоблачно+15°C36 %693 мм2.5 м/с0 %
    05:00Ясно и безоблачно+14°C40 %693 мм2.5 м/с0 %
    08:00Ясно и безоблачно+16°C38 %695 мм0.2 м/с0 %
    11:00Ясно и безоблачно+27°C19 %697 мм0.4 м/с0 %
    14:00Ясно и безоблачно+31°C10 %695 мм0.7 м/с0 %
    17:00Ясно и безоблачно+30°C10 %694 мм1.9 м/с0 %
    20:00Ясно и безоблачно+25°C14 %695 мм0.8 м/с0 %
    23:00Ясно и безоблачно+18°C31 %694 мм2.3 м/с0 %
  • 22июля
    Понедельник
    +14°
    +32°
    Ясно и безоблачно
    ВремяПогодаТемператураВлажностьДавлениеВетер, м/сВероятность осадков
    02:00Ясно и безоблачно+17°C34 %694 мм2.6 м/с0 %
    05:00Ясно и безоблачно+15°C43 %694 мм2.5 м/с0 %
    08:00Ясно и безоблачно+17°C41 %696 мм0.2 м/с0 %
    11:00Ясно и безоблачно+28°C18 %698 мм0.4 м/с0 %
    14:00Ясно и безоблачно+32°C11 %696 мм0.6 м/с0 %
    17:00Ясно и безоблачно+30°C11 %696 мм2.0 м/с0 %
    20:00Ясно и безоблачно+23°C16 %695 мм2.3 м/с0 %
    23:00Ясно и безоблачно+20°C23 %696 мм3.4 м/с0 %
  • 23июля
    Вторник
    +14°
    +32°
    Ясно и безоблачно
    ВремяПогодаТемператураВлажностьДавлениеВетер, м/сВероятность осадков
    02:00Ясно и безоблачно+17°C33 %695 мм3.2 м/с0 %
    05:00Ясно и безоблачно+16°C47 %695 мм2.8 м/с0 %
    08:00Ясно и безоблачно+17°C40 %697 мм0.2 м/с0 %
    11:00Ясно и безоблачно+29°C16 %699 мм0.5 м/с0 %
    14:00Ясно и безоблачно+32°C10 %697 мм0.7 м/с0 %
    17:00Ясно и безоблачно+30°C9 %696 мм2.2 м/с0 %
    20:00Ясно и безоблачно+23°C15 %696 мм2.2 м/с0 %
    23:00Ясно и безоблачно+20°C24 %696 мм3.4 м/с0 %
Мы используем cookies
Соглашаюсь